Time;durP1;ratioP1;P1;durP2;ratioP2;P2;SDS_P1;SDS_P2;PMS_P1;PMS_P2;Temp;Humidity;BMP_temperature;BMP_pressure;BME280_temperature;BME280_humidity;BME280_pressure;Samples;Min_cycle;Max_cycle;Signal;HPM_P1;HPM_P2
2022/08/06 00:02:23;;;;;;;3.67;1.52;;;;;;;19.08;57.83;97900.53;5006471;28;20038;-57
2022/08/06 00:04:55;;;;;;;3.03;1.42;;;;;;;19.14;58.27;97903.19;5005659;28;20124;-59
2022/08/06 00:07:23;;;;;;;4.05;1.55;;;;;;;19.17;57.17;97897.13;5006538;28;20120;-58
2022/08/06 00:09:52;;;;;;;2.72;1.30;;;;;;;19.13;56.54;97899.66;4992801;28;20101;-60
2022/08/06 00:12:26;;;;;;;3.92;1.70;;;;;;;19.08;56.96;97894.22;4986978;28;20042;-60
2022/08/06 00:14:56;;;;;;;2.72;1.55;;;;;;;18.93;57.36;97901.53;5002559;28;20052;-60
2022/08/06 00:17:24;;;;;;;5.90;1.70;;;;;;;18.97;57.67;97905.31;5006257;28;20049;-60
2022/08/06 00:19:55;;;;;;;2.92;1.33;;;;;;;19.12;55.57;97906.22;5006784;28;20050;-60
2022/08/06 00:22:26;;;;;;;5.40;1.60;;;;;;;19.07;56.88;97900.81;5006418;28;20049;-60
2022/08/06 00:24:55;;;;;;;4.45;1.48;;;;;;;18.92;57.17;97896.31;5006661;28;20708;-59
2022/08/06 00:27:24;;;;;;;4.05;1.58;;;;;;;18.88;57.72;97900.75;5003985;28;20049;-59
2022/08/06 00:30:05;;;;;;;2.78;1.30;;;;;;;18.93;57.22;97892.47;5002924;28;20505;-58
2022/08/06 00:32:40;;;;;;;3.97;1.38;;;;;;;18.92;57.41;97902.63;5006942;28;20069;-58
2022/08/06 00:35:07;;;;;;;2.95;1.40;;;;;;;18.97;57.33;97902.56;5006036;28;20049;-60
2022/08/06 00:37:33;;;;;;;3.70;1.27;;;;;;;18.91;58.25;97900.97;5005591;28;20046;-59
2022/08/06 00:40:21;;;;;;;4.30;1.30;;;;;;;19.02;56.61;97906.34;4987635;28;20041;-58
2022/08/06 00:42:50;;;;;;;3.33;1.38;;;;;;;19.03;56.92;97908.81;4990079;28;20584;-57
2022/08/06 00:45:20;;;;;;;6.38;1.60;;;;;;;18.97;58.10;97905.31;5006474;28;20156;-59
2022/08/06 00:47:51;;;;;;;2.50;1.40;;;;;;;18.79;58.68;97908.84;5006088;28;20448;-60
2022/08/06 00:50:28;;;;;;;3.05;1.17;;;;;;;18.74;57.92;97915.19;5005720;28;20810;-60
2022/08/06 00:52:54;;;;;;;4.60;1.45;;;;;;;18.71;58.65;97910.28;5006806;28;20060;-59
2022/08/06 00:55:21;;;;;;;3.42;1.30;;;;;;;18.90;57.52;97915.00;5002432;28;20401;-58
2022/08/06 00:58:05;;;;;;;3.45;1.50;;;;;;;18.81;57.85;97910.19;4994256;28;20066;-59
2022/08/06 01:00:33;;;;;;;1.52;1.17;;;;;;;18.63;57.85;97913.66;5009296;28;20056;-57
2022/08/06 01:03:06;;;;;;;3.67;1.35;;;;;;;18.81;56.35;97923.91;5009340;28;20259;-60
2022/08/06 01:05:52;;;;;;;4.55;1.58;;;;;;;18.74;57.23;97931.66;5009845;28;20038;-58
2022/08/06 01:08:39;;;;;;;3.05;1.05;;;;;;;18.78;57.49;97926.38;5008997;28;20108;-59
2022/08/06 01:11:07;;;;;;;3.25;1.38;;;;;;;18.64;58.04;97929.84;5005060;28;20041;-57
2022/08/06 01:13:35;;;;;;;2.10;1.25;;;;;;;18.67;57.55;97928.44;5009419;28;20452;-59
2022/08/06 01:16:33;;;;;;;3.42;1.48;;;;;;;18.51;57.05;97931.38;5008491;28;20327;-57
2022/08/06 01:19:22;;;;;;;2.20;1.25;;;;;;;18.58;57.00;97928.28;5009275;28;20191;-57
2022/08/06 01:22:38;;;;;;;3.58;1.27;;;;;;;18.58;56.86;97936.50;4997135;28;20046;-59
2022/08/06 01:25:44;;;;;;;2.78;1.00;;;;;;;18.45;56.99;97933.34;5009666;28;20108;-59
2022/08/06 01:28:34;;;;;;;3.08;1.13;;;;;;;18.50;57.04;97931.66;5006973;28;20113;-59
2022/08/06 01:31:14;;;;;;;3.30;1.13;;;;;;;18.52;57.40;97934.91;5009307;28;20181;-59
2022/08/06 01:33:54;;;;;;;5.43;1.48;;;;;;;18.46;57.74;97936.88;5008832;28;20045;-58
2022/08/06 01:36:26;;;;;;;4.57;1.33;;;;;;;18.55;57.30;97937.06;4991331;28;20085;-59
2022/08/06 01:38:57;;;;;;;4.05;1.20;;;;;;;18.54;57.03;97943.66;4994332;28;20506;-58
2022/08/06 01:41:38;;;;;;;3.03;1.40;;;;;;;18.38;58.13;97943.81;5006683;28;20103;-57
2022/08/06 01:44:30;;;;;;;3.30;1.25;;;;;;;18.27;57.74;97943.09;5009044;28;20050;-57
2022/08/06 01:47:01;;;;;;;2.55;1.15;;;;;;;18.30;57.94;97952.66;4989064;28;20122;-58
2022/08/06 01:49:43;;;;;;;2.10;1.23;;;;;;;18.30;57.82;97947.19;5008663;28;20104;-59
2022/08/06 01:52:31;;;;;;;2.33;1.10;;;;;;;18.29;58.38;97946.38;5008912;28;20053;-59
2022/08/06 01:55:01;;;;;;;4.55;1.23;;;;;;;18.25;58.53;97950.81;5009801;28;20053;-57
2022/08/06 01:57:32;;;;;;;3.92;1.33;;;;;;;18.26;58.33;97955.19;5007951;28;20061;-59
2022/08/06 02:00:20;;;;;;;1.63;0.90;;;;;;;18.28;57.92;97955.69;5009068;28;20068;-59
2022/08/06 02:02:59;;;;;;;3.38;1.13;;;;;;;18.33;57.46;97955.63;5007525;28;20531;-59
2022/08/06 02:05:27;;;;;;;4.72;1.65;;;;;;;18.10;58.87;97964.63;5007085;28;20045;-56
2022/08/06 02:08:00;;;;;;;2.63;1.30;;;;;;;18.08;58.61;97956.69;5005119;28;20474;-58
2022/08/06 02:10:50;;;;;;;3.30;1.25;;;;;;;18.11;58.38;97952.56;5000533;28;20096;-57
2022/08/06 02:13:19;;;;;;;3.00;1.20;;;;;;;18.11;58.60;97955.31;5007349;28;20046;-59
2022/08/06 02:15:46;;;;;;;3.78;1.38;;;;;;;18.18;57.81;97956.59;4988274;28;20073;-60
2022/08/06 02:18:28;;;;;;;2.38;0.93;;;;;;;18.06;58.71;97947.94;4997695;28;20382;-59
2022/08/06 02:21:05;;;;;;;3.55;1.45;;;;;;;18.03;58.93;97946.56;5008269;28;20048;-58
2022/08/06 02:23:54;;;;;;;5.10;1.42;;;;;;;18.01;59.27;97939.72;5008543;28;20045;-55
2022/08/06 02:26:24;;;;;;;4.90;1.27;;;;;;;18.02;59.30;97935.91;5006967;28;20049;-57
2022/08/06 02:28:55;;;;;;;2.90;1.25;;;;;;;17.99;59.50;97944.69;5007529;28;20042;-58
2022/08/06 02:31:22;;;;;;;4.50;1.60;;;;;;;17.97;59.23;97941.41;5008157;28;20054;-57
2022/08/06 02:33:50;;;;;;;2.97;1.25;;;;;;;17.88;59.80;97939.28;5007967;28;20050;-58
2022/08/06 02:36:41;;;;;;;2.75;1.20;;;;;;;17.87;59.89;97940.38;5006358;28;20080;-59
2022/08/06 02:39:23;;;;;;;2.22;1.27;;;;;;;17.89;60.10;97942.84;4998136;28;20066;-58
2022/08/06 02:42:25;;;;;;;2.97;1.33;;;;;;;17.81;59.87;97930.59;4996406;28;20049;-58
2022/08/06 02:45:02;;;;;;;3.40;1.25;;;;;;;17.67;60.83;97944.09;5007369;28;20076;-59
2022/08/06 02:47:34;;;;;;;4.53;1.48;;;;;;;17.66;61.03;97947.97;5007092;28;20041;-59
2022/08/06 02:50:27;;;;;;;2.03;1.17;;;;;;;17.63;61.00;97954.00;5007653;28;20100;-59
2022/08/06 02:53:04;;;;;;;3.28;1.50;;;;;;;17.57;61.01;97952.41;5002603;28;20457;-57
2022/08/06 02:55:56;;;;;;;3.10;1.17;;;;;;;17.63;61.32;97952.09;5007445;28;20042;-58
2022/08/06 02:58:22;;;;;;;3.33;1.13;;;;;;;17.57;61.46;97944.19;5007447;28;20124;-59
2022/08/06 03:01:07;;;;;;;3.90;1.50;;;;;;;17.79;60.53;97943.75;5007744;28;20045;-60
2022/08/06 03:03:37;;;;;;;2.90;1.30;;;;;;;17.70;60.95;97951.75;5007938;28;20072;-59
2022/08/06 03:06:23;;;;;;;4.10;1.52;;;;;;;17.71;61.23;97950.66;5006825;28;20088;-59
2022/08/06 03:08:54;;;;;;;4.20;1.90;;;;;;;17.62;61.63;97950.44;5006732;28;20458;-60
2022/08/06 03:11:23;;;;;;;3.28;1.10;;;;;;;17.71;61.19;97952.56;5004524;28;20046;-59
2022/08/06 03:13:52;;;;;;;3.45;1.30;;;;;;;17.64;61.37;97953.72;4988184;28;20416;-58
2022/08/06 03:16:20;;;;;;;3.00;1.40;;;;;;;17.53;62.36;97952.13;4998745;28;20060;-58
2022/08/06 03:18:53;;;;;;;3.00;1.50;;;;;;;17.66;61.29;97956.97;5003282;28;20128;-57
2022/08/06 03:21:42;;;;;;;3.30;1.42;;;;;;;17.58;61.76;97960.31;5007513;28;20073;-59
2022/08/06 03:24:22;;;;;;;5.15;1.60;;;;;;;17.45;62.79;97959.03;5006948;28;20067;-57
2022/08/06 03:26:55;;;;;;;4.85;1.45;;;;;;;17.42;62.61;97956.84;5006888;28;20038;-58
2022/08/06 03:29:24;;;;;;;4.80;1.30;;;;;;;17.32;63.41;97954.19;5007156;28;20046;-59
2022/08/06 03:31:50;;;;;;;2.42;1.30;;;;;;;17.32;62.86;97963.19;5006785;28;20050;-57
2022/08/06 03:34:26;;;;;;;5.70;1.33;;;;;;;17.36;63.01;97964.28;5007316;28;20157;-60
2022/08/06 03:36:55;;;;;;;3.10;1.60;;;;;;;17.40;62.97;97970.03;5006198;28;20092;-57
2022/08/06 03:39:23;;;;;;;2.25;1.50;;;;;;;17.42;62.45;97967.81;4998538;28;20034;-59
2022/08/06 03:41:52;;;;;;;3.45;1.42;;;;;;;17.46;62.61;97987.25;5006417;28;20386;-57
2022/08/06 03:44:34;;;;;;;3.35;1.40;;;;;;;17.39;62.97;97990.25;5006344;28;20046;-58
2022/08/06 03:47:24;;;;;;;3.47;1.40;;;;;;;17.29;63.42;97986.47;5006941;28;20050;-58
2022/08/06 03:50:09;;;;;;;3.42;1.48;;;;;;;17.28;63.25;97995.78;5006803;28;20041;-59
2022/08/06 03:52:39;;;;;;;;;;;;;;;17.12;64.03;97997.78;5007580;28;20049;-59
2022/08/06 03:55:09;;;;;;;4.78;1.80;;;;;;;16.98;64.60;97994.78;5006454;28;20020;-57
2022/08/06 03:57:50;;;;;;;2.72;1.63;;;;;;;17.04;64.55;97990.13;5006561;28;20046;-59
2022/08/06 04:00:20;;;;;;;5.45;1.83;;;;;;;17.19;63.70;97993.91;5005580;28;20481;-58
2022/08/06 04:02:55;;;;;;;2.58;1.58;;;;;;;17.08;64.36;97995.88;5006162;28;20581;-58
2022/08/06 04:05:27;;;;;;;5.22;1.42;;;;;;;17.10;64.48;97999.16;5006381;28;20210;-59
2022/08/06 04:07:58;;;;;;;4.82;1.67;;;;;;;17.16;63.61;97992.56;5006266;28;20045;-59
2022/08/06 04:10:32;;;;;;;3.95;1.48;;;;;;;17.22;63.88;97996.09;5004196;28;20038;-59
2022/08/06 04:13:04;;;;;;;6.25;2.25;;;;;;;17.26;63.12;97995.28;4987740;28;20421;-58
2022/08/06 04:15:52;;;;;;;2.53;1.40;;;;;;;17.19;63.94;97999.38;4992919;28;20066;-60
2022/08/06 04:18:25;;;;;;;3.33;1.40;;;;;;;17.18;64.10;97995.03;4984970;28;20502;-60
2022/08/06 04:20:55;;;;;;;4.22;1.73;;;;;;;17.25;63.96;98003.75;4988963;28;20058;-58
2022/08/06 04:23:43;;;;;;;6.35;1.50;;;;;;;17.16;64.12;98004.34;4991121;28;20042;-59
2022/08/06 04:26:14;;;;;;;2.28;1.30;;;;;;;17.22;64.06;98004.31;4991253;28;20050;-58
2022/08/06 04:28:45;;;;;;;3.65;1.35;;;;;;;17.22;63.79;98007.88;4998686;28;20076;-57
2022/08/06 04:31:26;;;;;;;4.47;1.60;;;;;;;17.07;64.90;98000.53;4993333;28;20054;-58
2022/08/06 04:34:15;;;;;;;6.07;1.67;;;;;;;16.94;65.05;98012.84;4990861;28;20476;-57
2022/08/06 04:36:43;;;;;;;4.47;1.70;;;;;;;16.77;65.98;98015.91;4996088;28;20065;-57
2022/08/06 04:39:18;;;;;;;3.08;1.75;;;;;;;16.74;65.95;98017.25;4993771;28;20045;-57
2022/08/06 04:41:52;;;;;;;3.83;1.65;;;;;;;16.65;66.48;98013.47;5001445;28;20042;-56
2022/08/06 04:44:27;;;;;;;3.28;1.63;;;;;;;16.50;67.11;98015.13;4993695;28;20052;-56
2022/08/06 04:46:56;;;;;;;5.45;1.77;;;;;;;16.50;67.62;98025.25;4993216;28;20054;-56
2022/08/06 04:49:22;;;;;;;4.20;1.67;;;;;;;16.49;67.28;98021.69;5000509;28;20521;-57
2022/08/06 04:52:20;;;;;;;3.33;1.73;;;;;;;16.50;67.28;98030.69;4997320;28;20568;-56
2022/08/06 04:55:07;;;;;;;3.35;1.77;;;;;;;16.51;67.13;98024.97;5000910;28;20127;-54
2022/08/06 04:57:54;;;;;;;3.83;2.25;;;;;;;16.51;67.23;98030.44;5003324;28;20719;-50
2022/08/06 05:00:31;;;;;;;5.40;1.77;;;;;;;16.50;67.65;98039.72;4997116;28;20042;-50
2022/08/06 05:03:18;;;;;;;4.50;1.80;;;;;;;16.49;67.54;98034.53;5000695;28;20069;-53
2022/08/06 05:06:25;;;;;;;6.55;2.03;;;;;;;16.48;67.57;98041.91;4990152;28;20097;-53
2022/08/06 05:09:01;;;;;;;3.40;1.83;;;;;;;16.45;67.83;98042.47;5002785;28;20374;-52
2022/08/06 05:11:56;;;;;;;4.65;1.90;;;;;;;16.51;68.20;98052.31;4993125;28;20049;-52
2022/08/06 05:14:31;;;;;;;3.78;2.13;;;;;;;16.50;67.75;98056.13;4982972;28;20082;-52
2022/08/06 05:17:02;;;;;;;3.40;2.13;;;;;;;16.52;67.88;98058.59;4993062;28;20069;-52
2022/08/06 05:19:38;;;;;;;6.28;2.45;;;;;;;16.59;67.90;98064.59;4989395;28;20429;-55
2022/08/06 05:22:08;;;;;;;6.47;2.05;;;;;;;16.62;67.79;98065.97;4990015;28;20046;-53
2022/08/06 05:24:40;;;;;;;5.50;2.10;;;;;;;16.62;67.75;98071.44;4996621;28;20069;-51
2022/08/06 05:27:26;;;;;;;3.78;2.00;;;;;;;16.69;67.37;98066.50;4996554;28;20517;-62
2022/08/06 05:30:13;;;;;;;4.18;1.80;;;;;;;16.80;67.12;98063.78;4998864;28;20073;-59
2022/08/06 05:32:49;;;;;;;7.28;2.35;;;;;;;16.74;66.95;98071.94;4987502;28;20050;-58
2022/08/06 05:35:22;;;;;;;4.68;2.13;;;;;;;16.78;67.27;98066.78;4985486;28;20058;-58
2022/08/06 05:38:07;;;;;;;4.13;1.80;;;;;;;16.77;67.18;98079.63;4998873;28;20117;-58
2022/08/06 05:40:37;;;;;;;5.22;2.20;;;;;;;16.78;67.20;98073.03;4988409;28;20825;-57
2022/08/06 05:43:23;;;;;;;4.43;2.13;;;;;;;16.90;66.77;98077.41;4999028;28;20065;-58
2022/08/06 05:45:56;;;;;;;3.70;2.10;;;;;;;16.98;66.88;98078.75;4997404;28;20418;-57
2022/08/06 05:48:24;;;;;;;5.32;2.22;;;;;;;16.88;66.91;98076.88;5006309;28;20096;-57
2022/08/06 05:51:04;;;;;;;;;;;;;;;16.84;66.57;98076.59;4993469;28;20042;-56
2022/08/06 05:53:48;;;;;;;5.20;2.40;;;;;;;16.86;66.69;98074.41;5006928;28;20016;-56
2022/08/06 05:56:37;;;;;;;4.00;2.05;;;;;;;16.84;67.09;98084.81;5000605;28;20037;-56
2022/08/06 05:59:18;;;;;;;5.03;2.20;;;;;;;16.93;67.27;98082.34;4991642;28;20277;-58
2022/08/06 06:02:06;;;;;;;5.45;2.50;;;;;;;16.86;67.19;98081.78;5002764;28;20049;-57
2022/08/06 06:04:33;;;;;;;4.30;1.98;;;;;;;16.97;67.03;98090.81;4991738;28;20458;-57
2022/08/06 06:07:01;;;;;;;4.25;2.05;;;;;;;16.92;66.83;98093.56;4994020;28;20038;-55
2022/08/06 06:09:31;;;;;;;4.00;2.20;;;;;;;16.94;67.46;98092.19;5003781;28;20033;-56
2022/08/06 06:12:18;;;;;;;6.80;2.30;;;;;;;17.12;66.70;98095.44;4992791;28;20058;-56
2022/08/06 06:14:48;;;;;;;4.30;1.95;;;;;;;17.05;66.26;98109.41;5004119;28;20498;-55
2022/08/06 06:17:35;;;;;;;5.05;2.33;;;;;;;17.01;66.60;98108.31;4992781;28;20050;-56
2022/08/06 06:20:26;;;;;;;5.07;2.00;;;;;;;16.93;67.23;98106.13;5002115;28;20053;-56
2022/08/06 06:23:23;;;;;;;6.05;2.38;;;;;;;16.87;67.62;98099.84;4992452;28;20069;-57
2022/08/06 06:26:14;;;;;;;4.45;2.22;;;;;;;16.88;66.92;98110.50;4992940;28;20112;-58
2022/08/06 06:29:21;;;;;;;4.63;2.70;;;;;;;16.85;67.42;98111.06;4995120;28;20208;-58
2022/08/06 06:32:42;;;;;;;3.67;2.17;;;;;;;17.02;66.75;98108.03;4999724;28;20522;-55
2022/08/06 06:35:30;;;;;;;5.22;2.25;;;;;;;17.16;65.69;98107.47;4991099;28;20161;-55
2022/08/06 06:38:20;;;;;;;3.17;1.80;;;;;;;17.22;65.53;98117.34;5003175;28;20513;-56
2022/08/06 06:40:58;;;;;;;3.65;2.05;;;;;;;17.37;64.72;98115.63;4994328;28;20069;-56
2022/08/06 06:43:47;;;;;;;5.28;2.00;;;;;;;17.24;64.63;98117.03;4990725;28;20624;-57
2022/08/06 06:46:38;;;;;;;2.35;1.45;;;;;;;17.39;63.00;98125.22;4992798;28;20046;-58
2022/08/06 06:49:24;;;;;;;3.80;1.85;;;;;;;17.40;62.82;98118.63;5002019;28;20121;-56
2022/08/06 06:52:46;;;;;;;4.18;1.58;;;;;;;17.52;61.68;98118.34;4999939;28;20074;-56
2022/08/06 06:55:35;;;;;;;4.65;1.85;;;;;;;17.61;61.60;98115.03;4981368;28;20143;-58
2022/08/06 06:58:45;;;;;;;3.72;1.75;;;;;;;17.48;61.45;98120.00;4998828;28;20124;-56
2022/08/06 07:01:15;;;;;;;3.25;1.60;;;;;;;17.64;61.36;98126.22;4989245;28;20052;-57
2022/08/06 07:03:56;;;;;;;5.68;1.70;;;;;;;17.56;61.86;98126.81;5003450;28;20510;-54
2022/08/06 07:06:24;;;;;;;3.97;1.60;;;;;;;17.75;61.92;98127.00;4992160;28;20449;-55
2022/08/06 07:09:13;;;;;;;2.65;1.30;;;;;;;17.66;61.15;98134.16;4990619;28;20046;-56
2022/08/06 07:12:02;;;;;;;10.68;1.77;;;;;;;17.73;61.93;98133.88;4992272;28;20041;-58
2022/08/06 07:14:34;;;;;;;4.65;1.77;;;;;;;17.58;61.22;98135.53;5000281;28;20045;-56
2022/08/06 07:17:03;;;;;;;2.67;1.52;;;;;;;17.66;60.88;98134.97;4997256;28;20054;-56
2022/08/06 07:19:54;;;;;;;4.93;1.83;;;;;;;17.82;60.25;98132.19;5000346;28;20133;-55
2022/08/06 07:22:22;;;;;;;4.35;1.95;;;;;;;17.89;59.73;98131.88;4994547;28;20046;-56
2022/08/06 07:24:57;;;;;;;3.47;1.77;;;;;;;17.90;59.61;98139.81;4997604;28;20085;-57
2022/08/06 07:27:32;;;;;;;3.20;1.60;;;;;;;18.01;59.46;98137.84;4998274;28;20056;-57
2022/08/06 07:30:16;;;;;;;4.85;1.75;;;;;;;18.10;58.86;98138.09;5002006;28;20049;-57
2022/08/06 07:32:45;;;;;;;3.35;1.90;;;;;;;18.05;58.93;98133.44;5007223;28;20046;-57
2022/08/06 07:35:19;;;;;;;2.65;1.50;;;;;;;18.14;59.07;98135.59;5006025;28;20051;-57
2022/08/06 07:37:50;;;;;;;;;;;;;;;18.12;58.60;98140.53;5005094;28;20505;-55
2022/08/06 07:40:28;;;;;;;4.18;1.60;;;;;;;18.18;58.69;98147.63;4999719;28;19925;-55
2022/08/06 07:43:05;;;;;;;4.93;2.15;;;;;;;18.47;58.65;98141.44;5006652;28;20042;-56
2022/08/06 07:45:50;;;;;;;3.70;1.88;;;;;;;18.43;58.00;98138.41;5005608;28;20579;-58
2022/08/06 07:48:45;;;;;;;3.70;1.58;;;;;;;18.41;57.46;98139.81;4995171;28;20142;-56
2022/08/06 07:51:24;;;;;;;4.45;1.98;;;;;;;18.41;57.18;98137.91;4991321;28;20383;-56
2022/08/06 07:54:02;;;;;;;4.70;2.08;;;;;;;18.42;57.27;98139.53;4986607;28;20584;-54
2022/08/06 07:56:39;;;;;;;3.50;1.70;;;;;;;18.54;56.86;98138.38;4998788;28;20502;-58
2022/08/06 07:59:26;;;;;;;2.97;1.60;;;;;;;18.49;56.88;98139.22;4997905;28;20148;-57
2022/08/06 08:01:57;;;;;;;4.07;1.70;;;;;;;18.62;57.18;98134.19;5000628;28;20107;-58
2022/08/06 08:07:21;;;;;;;3.38;1.60;;;;;;;18.66;56.36;98127.84;4998482;28;20087;-56
2022/08/06 08:10:04;;;;;;;5.57;1.80;;;;;;;18.73;55.93;98119.28;4997514;28;20031;-56
2022/08/06 08:12:33;;;;;;;3.05;1.60;;;;;;;18.75;56.02;98132.72;4997987;28;20045;-58
2022/08/06 08:15:07;;;;;;;4.47;2.55;;;;;;;18.65;56.46;98125.38;4992292;28;20056;-57
2022/08/06 08:17:49;;;;;;;2.88;1.45;;;;;;;18.62;55.74;98128.69;4990677;28;20050;-58
2022/08/06 08:20:30;;;;;;;5.90;1.83;;;;;;;18.59;55.83;98125.44;4996325;28;20042;-58
2022/08/06 08:23:04;;;;;;;4.32;1.73;;;;;;;18.82;55.81;98131.28;4986701;28;20134;-57
2022/08/06 08:25:33;;;;;;;3.55;1.83;;;;;;;18.76;55.62;98126.91;4997688;28;20057;-58
2022/08/06 08:28:07;;;;;;;3.25;1.70;;;;;;;18.91;55.17;98128.72;4992251;28;20073;-56
2022/08/06 08:30:40;;;;;;;3.20;1.48;;;;;;;18.91;54.21;98133.41;4996851;28;20442;-58
2022/08/06 08:33:07;;;;;;;2.85;1.65;;;;;;;18.98;54.13;98128.38;4994000;28;20060;-58
2022/08/06 08:35:37;;;;;;;3.10;2.00;;;;;;;19.04;54.35;98131.88;4990199;28;20132;-56
2022/08/06 08:38:04;;;;;;;3.33;1.50;;;;;;;18.91;54.70;98125.16;5000973;28;20048;-58
2022/08/06 08:40:36;;;;;;;3.60;1.35;;;;;;;19.18;54.89;98124.66;4991978;28;20057;-55
2022/08/06 08:43:05;;;;;;;4.22;1.63;;;;;;;19.22;53.38;98124.88;4992267;28;20041;-57
2022/08/06 08:45:33;;;;;;;2.80;1.42;;;;;;;19.18;52.45;98129.31;4988225;28;20150;-58
2022/08/06 08:48:03;;;;;;;2.72;1.30;;;;;;;19.12;52.85;98117.56;4990812;28;20046;-56
2022/08/06 08:50:33;;;;;;;2.28;1.30;;;;;;;19.39;51.97;98129.94;4996720;28;20053;-56
2022/08/06 08:53:05;;;;;;;4.53;1.77;;;;;;;19.67;52.44;98127.41;4989286;28;20465;-54
2022/08/06 08:55:34;;;;;;;2.05;1.30;;;;;;;19.70;50.68;98126.81;4986682;28;20042;-58
2022/08/06 08:58:22;;;;;;;3.97;1.60;;;;;;;19.63;51.42;98129.09;4993624;28;20125;-58
2022/08/06 09:01:09;;;;;;;4.80;1.50;;;;;;;19.65;51.91;98129.63;5006544;28;20461;-58
2022/08/06 09:03:56;;;;;;;4.07;1.40;;;;;;;19.87;50.51;98123.56;5005755;28;20069;-57
2022/08/06 09:06:24;;;;;;;3.55;1.15;;;;;;;20.08;49.00;98128.81;5004735;28;20096;-55
2022/08/06 09:09:02;;;;;;;1.90;1.10;;;;;;;20.17;49.22;98137.25;4996426;28;20046;-57
2022/08/06 09:11:32;;;;;;;4.90;1.38;;;;;;;19.94;48.58;98134.19;4994534;28;20034;-58
2022/08/06 09:14:19;;;;;;;3.05;1.45;;;;;;;19.84;48.74;98134.34;4999432;28;20065;-58
2022/08/06 09:16:46;;;;;;;2.72;1.20;;;;;;;20.04;48.17;98138.78;4994932;28;20126;-58
2022/08/06 09:19:16;;;;;;;4.32;1.23;;;;;;;19.99;47.94;98136.09;5004687;28;20116;-55
2022/08/06 09:21:45;;;;;;;2.88;1.00;;;;;;;19.81;48.10;98148.66;4994963;28;20050;-56
2022/08/06 09:24:16;;;;;;;1.60;0.88;;;;;;;19.89;47.96;98137.84;4997113;28;20042;-55
2022/08/06 09:27:10;;;;;;;4.75;1.23;;;;;;;20.02;47.53;98138.25;4996689;28;20076;-54
2022/08/06 09:30:00;;;;;;;3.13;1.20;;;;;;;20.46;47.10;98138.19;4991342;28;20035;-55
2022/08/06 09:32:47;;;;;;;3.42;1.20;;;;;;;20.06;46.47;98142.06;5000377;28;20139;-55
2022/08/06 09:35:30;;;;;;;5.40;1.17;;;;;;;20.22;46.57;98137.16;4993849;28;20050;-57
2022/08/06 09:38:11;;;;;;;3.60;1.38;;;;;;;-148.22;100.00;64452.44;4999950;28;20042;-59
2022/08/06 09:41:09;;;;;;;6.63;1.30;;;;;;;-148.22;100.00;64452.44;4988560;28;20403;-59
2022/08/06 09:43:43;;;;;;;4.07;1.02;;;;;;;-148.22;100.00;64452.44;4990042;28;20057;-55
2022/08/06 09:46:37;;;;;;;2.08;1.10;;;;;;;-148.22;100.00;64452.44;4990932;28;20091;-58
2022/08/06 09:49:04;;;;;;;3.58;1.15;;;;;;;-148.22;100.00;64452.44;4997887;28;20050;-55
2022/08/06 09:51:50;;;;;;;4.07;1.40;;;;;;;-148.22;100.00;64452.44;4996938;28;20131;-55
2022/08/06 09:54:18;;;;;;;3.85;1.42;;;;;;;-148.22;100.00;64452.44;4980163;28;20519;-57
2022/08/06 09:56:59;;;;;;;3.85;1.10;;;;;;;-148.22;100.00;64452.44;4973158;28;20289;-57
2022/08/06 09:59:26;;;;;;;4.28;1.13;;;;;;;-148.22;100.00;64452.44;4978013;28;20332;-57
2022/08/06 10:01:57;;;;;;;;;;;;;;;-148.22;100.00;64452.44;4978216;28;20056;-56
2022/08/06 10:04:26;;;;;;;1.92;0.90;;;;;;;-148.22;100.00;64452.44;4968016;28;19996;-55
2022/08/06 10:07:03;;;;;;;3.72;1.08;;;;;;;-148.22;100.00;64452.44;4975004;28;20769;-58
2022/08/06 10:09:36;;;;;;;6.15;1.58;;;;;;;-148.22;100.00;64452.44;4983824;28;20066;-62
2022/08/06 10:12:21;;;;;;;4.18;1.02;;;;;;;-148.22;100.00;64452.44;5000587;28;20100;-61
2022/08/06 10:14:53;;;;;;;4.65;1.35;;;;;;;-148.22;100.00;64452.44;4993607;28;20046;-62
2022/08/06 10:17:22;;;;;;;1.85;1.08;;;;;;;-148.22;100.00;64452.44;4999697;28;20050;-62
2022/08/06 10:20:08;;;;;;;3.42;1.30;;;;;;;-148.22;100.00;64452.44;5000269;28;20050;-62
2022/08/06 10:22:36;;;;;;;2.33;1.00;;;;;;;-148.22;100.00;64452.44;5005958;28;20046;-61
2022/08/06 10:25:07;;;;;;;3.63;1.20;;;;;;;-148.22;100.00;64452.44;4994615;28;20082;-60
2022/08/06 10:27:39;;;;;;;2.35;0.85;;;;;;;-148.22;100.00;64452.44;5004189;28;20056;-62
2022/08/06 10:30:08;;;;;;;3.97;1.10;;;;;;;-148.22;100.00;64452.44;4996960;28;20143;-63
2022/08/06 10:32:50;;;;;;;2.72;1.20;;;;;;;-148.22;100.00;64452.44;4998564;28;20050;-61
2022/08/06 10:35:20;;;;;;;4.82;1.20;;;;;;;-148.22;100.00;64452.44;4996787;28;20595;-61
2022/08/06 10:37:56;;;;;;;1.98;0.88;;;;;;;-148.22;100.00;64452.44;4991805;28;20053;-61
2022/08/06 10:40:25;;;;;;;2.67;0.98;;;;;;;-148.22;100.00;64452.44;4995539;28;20052;-61
2022/08/06 10:42:58;;;;;;;0.90;0.60;;;;;;;-148.22;100.00;64452.44;5005708;28;20053;-61
2022/08/06 10:45:27;;;;;;;2.83;1.35;;;;;;;-148.22;100.00;64452.44;5005737;28;20070;-61
2022/08/06 10:48:15;;;;;;;2.55;0.90;;;;;;;-148.22;100.00;64452.44;5004952;28;20509;-62
2022/08/06 10:51:04;;;;;;;2.33;1.02;;;;;;;-148.22;100.00;64452.44;5002055;28;20045;-62
2022/08/06 10:53:36;;;;;;;2.20;0.95;;;;;;;-148.22;100.00;64452.44;5005928;28;20049;-62
2022/08/06 10:56:25;;;;;;;2.63;1.00;;;;;;;-148.22;100.00;64452.44;4991398;28;20123;-62
2022/08/06 10:59:04;;;;;;;6.03;1.52;;;;;;;-148.22;100.00;64452.44;5006041;28;20129;-61
2022/08/06 11:01:57;;;;;;;4.20;1.40;;;;;;;-148.22;100.00;64452.44;5003842;28;20048;-62
2022/08/06 11:04:40;;;;;;;5.32;1.10;;;;;;;-148.22;100.00;64452.44;5005788;28;20133;-61
2022/08/06 11:07:28;;;;;;;5.30;1.10;;;;;;;-148.22;100.00;64452.44;5004555;28;20053;-61
2022/08/06 11:10:34;;;;;;;3.30;0.90;;;;;;;-148.22;100.00;64452.44;5002838;28;20137;-61
2022/08/06 11:13:28;;;;;;;3.63;1.20;;;;;;;-148.22;100.00;64452.44;5004820;28;20052;-62
2022/08/06 11:16:25;;;;;;;4.07;1.00;;;;;;;-148.22;100.00;64452.44;5004205;28;20073;-62
2022/08/06 11:19:12;;;;;;;3.00;1.13;;;;;;;-148.22;100.00;64452.44;4991864;28;20121;-61
2022/08/06 11:21:45;;;;;;;4.00;1.05;;;;;;;-148.22;100.00;64452.44;4995567;28;20042;-62
2022/08/06 11:24:28;;;;;;;4.90;1.20;;;;;;;-148.22;100.00;64452.44;4998094;28;20050;-62
2022/08/06 11:26:57;;;;;;;4.57;1.10;;;;;;;-148.22;100.00;64452.44;4995132;28;20046;-61
2022/08/06 11:30:11;;;;;;;1.70;0.90;;;;;;;-148.22;100.00;64452.44;4998224;28;20065;-61
2022/08/06 11:32:43;;;;;;;1.98;1.10;;;;;;;-148.22;100.00;64452.44;4996511;28;20058;-61
2022/08/06 11:35:32;;;;;;;3.47;1.00;;;;;;;-148.22;100.00;64452.44;4996336;28;20046;-61
2022/08/06 11:38:13;;;;;;;1.85;1.10;;;;;;;-148.22;100.00;64452.44;4993661;28;20084;-61
2022/08/06 11:41:09;;;;;;;4.72;0.90;;;;;;;-148.22;100.00;64452.44;4993812;28;20520;-62
2022/08/06 11:43:48;;;;;;;3.28;1.00;;;;;;;-148.22;100.00;64452.44;4995540;28;20053;-61
2022/08/06 11:46:34;;;;;;;2.45;0.88;;;;;;;-148.22;100.00;64452.44;4999358;28;20433;-61
2022/08/06 11:49:12;;;;;;;1.95;0.90;;;;;;;-148.22;100.00;64452.44;4999814;28;20038;-61
2022/08/06 11:51:51;;;;;;;3.72;1.00;;;;;;;-148.22;100.00;64452.44;4993974;28;20070;-61
2022/08/06 11:55:04;;;;;;;4.03;0.85;;;;;;;-148.22;100.00;64452.44;4993445;28;20041;-62
2022/08/06 11:57:34;;;;;;;1.65;0.90;;;;;;;-148.22;100.00;64452.44;4911284;29;20055;-63
2022/08/06 12:00:16;;;;;;;9.10;1.30;;;;;;;-148.22;100.00;64452.44;4942325;29;20047;-63
2022/08/06 12:02:52;;;;;;;1.98;1.08;;;;;;;-148.22;100.00;64452.44;4967651;28;20041;-63
2022/08/06 12:05:22;;;;;;;2.20;0.90;;;;;;;-148.22;100.00;64452.44;4967009;28;20077;-63
2022/08/06 12:08:18;;;;;;;3.75;1.00;;;;;;;-148.22;100.00;64452.44;4963221;28;20054;-64
2022/08/06 12:11:27;;;;;;;2.28;1.05;;;;;;;-148.22;100.00;64452.44;4966435;28;20379;-64
2022/08/06 12:13:55;;;;;;;2.28;0.90;;;;;;;-148.22;100.00;64452.44;4958696;28;20421;-64
2022/08/06 12:16:42;;;;;;;3.25;1.10;;;;;;;-148.22;100.00;64452.44;4965325;28;20046;-64
2022/08/06 12:19:20;;;;;;;2.35;0.90;;;;;;;-148.22;100.00;64452.44;4974427;28;20069;-64
2022/08/06 12:21:53;;;;;;;2.42;0.90;;;;;;;-148.22;100.00;64452.44;4988345;28;20947;-64
2022/08/06 12:24:26;;;;;;;1.75;1.05;;;;;;;-148.22;100.00;64452.44;4993188;28;20054;-63
2022/08/06 12:27:13;;;;;;;3.42;1.10;;;;;;;-148.22;100.00;64452.44;4988085;28;20065;-64